createdAt,value
2018-10-01T00:01:38.156Z,92.10
2018-10-01T00:04:07.394Z,91.69
2018-10-01T00:06:38.217Z,91.65
2018-10-01T00:09:09.591Z,92.21
2018-10-01T00:11:40.680Z,91.62
2018-10-01T00:14:09.897Z,91.77
2018-10-01T00:16:38.985Z,92.03
2018-10-01T00:19:13.439Z,91.57
2018-10-01T00:21:47.664Z,91.53
2018-10-01T00:24:23.532Z,91.90
2018-10-01T00:26:52.651Z,92.11
2018-10-01T00:29:25.413Z,91.82
2018-10-01T00:31:54.533Z,92.42
2018-10-01T00:34:25.693Z,92.67
2018-10-01T00:36:54.917Z,92.46
2018-10-01T00:39:23.973Z,92.46
2018-10-01T00:41:55.372Z,92.07
2018-10-01T00:44:31.409Z,92.47
2018-10-01T00:47:00.510Z,91.87
2018-10-01T00:49:29.686Z,91.79
2018-10-01T00:51:58.798Z,92.04
2018-10-01T00:54:27.928Z,92.41
2018-10-01T00:56:57.083Z,92.89
2018-10-01T00:59:26.250Z,92.25
2018-10-01T01:01:57.945Z,93.48
2018-10-01T01:04:27.175Z,93.81
2018-10-01T01:06:58.980Z,94.07
2018-10-01T01:09:28.303Z,93.74
2018-10-01T01:12:01.574Z,93.91
2018-10-01T01:14:33.797Z,94.10
2018-10-01T01:17:02.928Z,94.32
2018-10-01T01:19:32.003Z,93.67
2018-10-01T01:22:01.121Z,93.63
2018-10-01T01:24:30.271Z,93.58
2018-10-01T01:27:01.922Z,93.42
2018-10-01T01:29:32.914Z,93.47
2018-10-01T01:32:04.630Z,93.61
2018-10-01T01:34:35.575Z,93.75
2018-10-01T01:37:04.726Z,93.82
2018-10-01T01:39:35.533Z,93.95
2018-10-01T01:42:04.654Z,93.98
2018-10-01T01:44:33.751Z,93.41
2018-10-01T01:47:02.902Z,93.54
2018-10-01T01:49:32.094Z,94.21
2018-10-01T01:52:01.166Z,94.25
2018-10-01T01:54:30.235Z,94.36
2018-10-01T01:56:59.366Z,94.41
2018-10-01T01:59:28.515Z,94.42
2018-10-01T02:01:57.630Z,94.59
2018-10-01T02:04:29.043Z,94.76
2018-10-01T02:06:58.151Z,95.08
2018-10-01T02:09:30.619Z,95.25
2018-10-01T02:11:59.721Z,95.49
2018-10-01T02:14:28.793Z,95.65
2018-10-01T02:16:57.969Z,95.97
2018-10-01T02:19:27.085Z,96.17
2018-10-01T02:21:56.296Z,96.01
2018-10-01T02:24:27.486Z,96.51
2018-10-01T02:26:58.180Z,96.48
2018-10-01T02:29:27.338Z,96.77
2018-10-01T02:31:56.445Z,96.77
2018-10-01T02:34:25.670Z,97.05
2018-10-01T02:36:56.412Z,97.23
2018-10-01T02:39:25.562Z,97.57
2018-10-01T02:41:54.725Z,97.94
2018-10-01T02:44:23.830Z,98.59
2018-10-01T02:46:52.906Z,98.92
2018-10-01T02:49:25.219Z,99.38
2018-10-01T02:51:59.517Z,99.37
2018-10-01T02:54:29.963Z,99.18
2018-10-01T02:56:59.269Z,99.63
2018-10-01T02:59:29.351Z,99.55
2018-10-01T03:02:01.596Z,99.48
2018-10-01T03:04:31.465Z,99.72
2018-10-01T03:07:03.633Z,100.00
2018-10-01T03:09:33.303Z,100.00
2018-10-01T03:12:04.962Z,100.00
2018-10-01T03:14:34.776Z,100.00
2018-10-01T03:17:04.949Z,100.00
2018-10-01T03:19:34.950Z,100.00
2018-10-01T03:22:04.715Z,100.00
2018-10-01T03:24:36.455Z,100.00
2018-10-01T03:27:06.680Z,100.00
2018-10-01T03:29:39.116Z,100.00
2018-10-01T03:32:09.087Z,100.00
2018-10-01T03:34:38.982Z,100.00
2018-10-01T03:37:08.846Z,100.00
2018-10-01T03:39:38.832Z,100.00
2018-10-01T03:42:09.190Z,100.00
2018-10-01T03:44:39.216Z,100.00
2018-10-01T03:47:09.901Z,100.00
2018-10-01T03:49:40.106Z,100.00
2018-10-01T03:52:09.795Z,100.00
2018-10-01T03:54:39.970Z,100.00
2018-10-01T03:57:10.653Z,100.00
2018-10-01T03:59:40.949Z,100.00
2018-10-01T04:02:11.252Z,100.00
2018-10-01T04:04:41.081Z,100.00
2018-10-01T04:07:11.293Z,100.00
2018-10-01T04:09:41.239Z,100.00
2018-10-01T04:12:11.320Z,100.00
2018-10-01T04:14:41.418Z,100.00
2018-10-01T04:17:11.388Z,100.00
2018-10-01T04:19:41.457Z,100.00
2018-10-01T04:22:11.244Z,100.00
2018-10-01T04:24:41.247Z,100.00
2018-10-01T04:27:11.146Z,100.00
2018-10-01T04:29:41.459Z,100.00
2018-10-01T04:32:11.347Z,100.00
2018-10-01T04:34:41.304Z,100.00
2018-10-01T04:37:11.181Z,100.00
2018-10-01T04:39:41.078Z,100.00
2018-10-01T04:42:10.923Z,100.00
2018-10-01T04:44:40.917Z,100.00
2018-10-01T04:47:10.713Z,100.00
2018-10-01T04:49:40.939Z,100.00
2018-10-01T04:52:10.788Z,100.00
2018-10-01T04:54:40.716Z,100.00
2018-10-01T04:57:10.773Z,100.00
2018-10-01T04:59:40.714Z,100.00
2018-10-01T05:02:10.659Z,100.00
2018-10-01T05:04:40.682Z,100.00
2018-10-01T05:07:10.704Z,100.00
2018-10-01T05:09:40.891Z,100.00
2018-10-01T05:12:25.577Z,100.00
2018-10-01T05:14:55.565Z,100.00
2018-10-01T05:17:25.740Z,100.00
2018-10-01T05:19:55.738Z,100.00
2018-10-01T05:22:25.708Z,100.00
2018-10-01T05:24:55.466Z,100.00
2018-10-01T05:27:25.483Z,100.00
2018-10-01T05:29:55.376Z,100.00
2018-10-01T05:32:25.276Z,100.00
2018-10-01T05:34:55.134Z,100.00
2018-10-01T05:37:24.992Z,100.00
2018-10-01T05:39:55.044Z,100.00
2018-10-01T05:42:24.644Z,100.00
2018-10-01T05:44:54.667Z,100.00
2018-10-01T05:47:24.600Z,100.00
2018-10-01T05:49:57.436Z,100.00
2018-10-01T05:52:27.420Z,100.00
2018-10-01T05:54:57.277Z,100.00
2018-10-01T05:57:27.039Z,100.00
2018-10-01T05:59:56.963Z,100.00
2018-10-01T06:02:26.825Z,100.00
2018-10-01T06:04:57.032Z,100.00
2018-10-01T06:07:26.851Z,100.00
2018-10-01T06:09:56.712Z,100.00
2018-10-01T06:12:57.514Z,100.00
2018-10-01T06:15:27.296Z,100.00
2018-10-01T06:17:57.011Z,100.00
2018-10-01T06:20:26.952Z,100.00
2018-10-01T06:22:56.922Z,100.00
2018-10-01T06:25:26.863Z,100.00
2018-10-01T06:27:56.780Z,100.00
2018-10-01T06:30:26.782Z,100.00
2018-10-01T06:32:56.453Z,100.00
2018-10-01T06:35:26.463Z,100.00
2018-10-01T06:37:56.637Z,100.00
2018-10-01T06:40:26.649Z,100.00
2018-10-01T06:42:56.644Z,100.00
2018-10-01T06:45:26.460Z,100.00
2018-10-01T06:47:58.967Z,100.00
2018-10-01T06:50:28.649Z,100.00
2018-10-01T06:52:58.718Z,100.00
2018-10-01T06:55:28.824Z,100.00
2018-10-01T06:57:58.956Z,100.00
2018-10-01T07:00:28.884Z,100.00
2018-10-01T07:02:58.833Z,100.00
2018-10-01T07:05:28.886Z,100.00
2018-10-01T07:07:58.648Z,100.00
2018-10-01T07:10:28.473Z,100.00
2018-10-01T07:12:58.364Z,100.00
2018-10-01T07:15:30.782Z,100.00
2018-10-01T07:18:00.620Z,100.00
2018-10-01T07:20:30.642Z,100.00
2018-10-01T07:23:00.809Z,100.00
2018-10-01T07:25:30.824Z,100.00
2018-10-01T07:28:00.996Z,100.00
2018-10-01T07:30:30.816Z,100.00
2018-10-01T07:33:00.731Z,100.00
2018-10-01T07:35:30.835Z,100.00
2018-10-01T07:38:00.913Z,100.00
2018-10-01T07:40:33.101Z,100.00
2018-10-01T07:43:03.731Z,100.00
2018-10-01T07:45:33.660Z,100.00
2018-10-01T07:48:03.544Z,100.00
2018-10-01T07:50:33.279Z,100.00
2018-10-01T07:53:03.019Z,100.00
2018-10-01T07:55:32.843Z,100.00
2018-10-01T07:58:02.354Z,100.00
2018-10-01T08:00:32.198Z,100.00
2018-10-01T08:03:01.742Z,100.00
2018-10-01T08:05:31.460Z,100.00
2018-10-01T08:08:01.178Z,100.00
2018-10-01T08:10:30.770Z,100.00
2018-10-01T08:13:00.646Z,100.00
2018-10-01T08:15:30.292Z,100.00
2018-10-01T08:17:59.886Z,100.00
2018-10-01T08:20:31.772Z,100.00
2018-10-01T08:23:01.441Z,100.00
2018-10-01T08:25:31.205Z,100.00
2018-10-01T08:28:00.884Z,100.00
2018-10-01T08:30:30.487Z,100.00
2018-10-01T08:33:00.087Z,100.00
2018-10-01T08:35:29.967Z,100.00
2018-10-01T08:37:59.541Z,100.00
2018-10-01T08:40:29.222Z,100.00
2018-10-01T08:42:58.867Z,100.00
2018-10-01T08:45:28.536Z,100.00
2018-10-01T08:47:58.297Z,100.00
2018-10-01T08:50:31.901Z,100.00
2018-10-01T08:53:22.130Z,100.00
2018-10-01T08:55:52.513Z,100.00
2018-10-01T08:58:22.271Z,100.00
2018-10-01T09:00:52.487Z,99.04
2018-10-01T09:03:22.230Z,97.82
2018-10-01T09:05:52.679Z,96.95
2018-10-01T09:08:22.391Z,95.99
2018-10-01T09:10:52.891Z,95.76
2018-10-01T09:13:22.504Z,95.62
2018-10-01T09:15:53.178Z,94.81
2018-10-01T09:18:22.853Z,94.74
2018-10-01T09:20:53.201Z,95.38
2018-10-01T09:23:22.836Z,95.70
2018-10-01T09:25:53.048Z,96.14
2018-10-01T09:28:22.773Z,95.18
2018-10-01T09:30:53.046Z,95.06
2018-10-01T09:33:22.603Z,94.60
2018-10-01T09:35:53.092Z,94.40
2018-10-01T09:38:22.780Z,93.59
2018-10-01T09:40:53.223Z,92.23
2018-10-01T09:43:22.886Z,90.42
2018-10-01T09:45:53.125Z,91.93
2018-10-01T09:48:25.078Z,90.49
2018-10-01T09:50:54.837Z,90.07
2018-10-01T09:53:24.451Z,88.18
2018-10-01T09:55:54.039Z,88.42
2018-10-01T09:58:23.767Z,88.80
2018-10-01T10:00:58.825Z,89.50
2018-10-01T10:03:28.422Z,88.56
2018-10-01T10:05:58.156Z,85.99
2018-10-01T10:08:27.842Z,87.31
2018-10-01T10:10:57.384Z,86.59
2018-10-01T10:13:27.084Z,87.47
2018-10-01T10:15:56.692Z,85.35
2018-10-01T10:18:26.338Z,85.48
2018-10-01T10:20:56.338Z,86.08
2018-10-01T10:23:26.052Z,85.22
2018-10-01T10:25:57.390Z,85.06
2018-10-01T10:28:27.036Z,85.73
2018-10-01T10:30:56.728Z,84.88
2018-10-01T10:33:26.489Z,82.18
2018-10-01T10:35:59.870Z,84.17
2018-10-01T10:38:29.850Z,81.95
2018-10-01T10:40:59.362Z,82.74
2018-10-01T10:43:29.041Z,83.55
2018-10-01T10:45:58.658Z,83.86
2018-10-01T10:48:28.334Z,84.39
2018-10-01T10:51:00.107Z,81.22
2018-10-01T10:53:29.810Z,81.32
2018-10-01T10:56:01.516Z,83.18
2018-10-01T10:58:31.131Z,81.99
2018-10-01T11:01:03.176Z,80.14
2018-10-01T11:03:32.958Z,78.81
2018-10-01T11:06:02.655Z,77.79
2018-10-01T11:08:34.510Z,78.96
2018-10-01T11:11:04.770Z,78.51
2018-10-01T11:16:06.364Z,77.73
2018-10-01T11:18:37.872Z,78.12
2018-10-01T11:21:07.605Z,77.59
2018-10-01T11:23:36.694Z,75.62
2018-10-01T11:26:07.952Z,74.30
2018-10-01T11:28:38.817Z,73.55
2018-10-01T11:31:07.962Z,74.99
2018-10-01T11:33:41.163Z,73.80
2018-10-01T11:36:10.212Z,72.43
2018-10-01T11:38:39.329Z,71.99
2018-10-01T11:41:08.714Z,72.61
2018-10-01T11:43:37.978Z,69.45
2018-10-01T11:46:07.091Z,63.98
2018-10-01T11:48:36.203Z,68.36
2018-10-01T11:51:05.399Z,64.68
2018-10-01T11:53:34.511Z,64.91
2018-10-01T11:56:03.720Z,63.64
2018-10-01T11:58:32.913Z,65.22
2018-10-01T12:01:02.308Z,63.81
2018-10-01T12:03:31.533Z,63.70
2018-10-01T12:06:00.594Z,65.78
2018-10-01T12:08:29.747Z,64.33
2018-10-01T12:10:58.905Z,63.69
2018-10-01T12:13:28.051Z,60.79
2018-10-01T12:15:57.399Z,62.79
2018-10-01T12:18:26.315Z,62.27
2018-10-01T12:20:55.470Z,62.42
2018-10-01T12:23:24.631Z,63.47
2018-10-01T12:25:54.337Z,62.10
2018-10-01T12:28:23.856Z,59.14
2018-10-01T12:35:46.692Z,59.23
2018-10-01T12:38:15.925Z,59.65
2018-10-01T12:40:45.476Z,62.45
2018-10-01T12:43:14.711Z,58.00
2018-10-01T12:45:43.963Z,55.80
2018-10-01T12:48:13.002Z,57.64
2018-10-01T12:50:42.211Z,58.36
2018-10-01T12:53:11.352Z,58.73
2018-10-01T12:55:40.459Z,57.70
2018-10-01T12:58:09.573Z,57.93
2018-10-01T13:00:38.792Z,57.21
2018-10-01T13:03:08.042Z,54.34
2018-10-01T13:05:37.324Z,58.00
2018-10-01T13:08:06.452Z,57.31
2018-10-01T13:10:35.717Z,60.31
2018-10-01T13:13:04.928Z,58.45
2018-10-01T13:15:34.036Z,55.08
2018-10-01T13:18:03.216Z,53.81
2018-10-01T13:20:32.374Z,57.95
2018-10-01T13:23:01.549Z,57.22
2018-10-01T13:25:30.683Z,57.67
2018-10-01T13:27:59.890Z,60.19
2018-10-01T13:30:29.074Z,59.48
2018-10-01T13:32:58.217Z,63.34
2018-10-01T13:35:27.413Z,63.73
2018-10-01T13:37:56.708Z,61.46
2018-10-01T13:40:25.853Z,60.34
2018-10-01T13:42:54.979Z,62.41
2018-10-01T13:45:24.505Z,61.20
2018-10-01T13:47:54.746Z,62.72
2018-10-01T13:50:24.631Z,62.22
2018-10-01T13:52:54.670Z,63.28
2018-10-01T13:55:24.577Z,61.04
2018-10-01T13:57:54.703Z,62.73
2018-10-01T14:00:24.692Z,62.59
2018-10-01T14:02:55.081Z,61.94
2018-10-01T14:05:24.723Z,64.12
2018-10-01T14:07:56.937Z,62.08
2018-10-01T14:10:26.049Z,60.77
2018-10-01T14:12:55.281Z,62.15
2018-10-01T14:15:24.777Z,62.39
2018-10-01T14:18:00.076Z,61.46
2018-10-01T14:20:29.249Z,62.21
2018-10-01T14:22:58.287Z,62.23
2018-10-01T14:25:27.604Z,63.49
2018-10-01T14:27:56.648Z,64.99
2018-10-01T14:30:25.846Z,64.24
2018-10-01T14:32:55.344Z,65.75
2018-10-01T14:35:25.327Z,65.14
2018-10-01T14:37:55.110Z,65.80
2018-10-01T14:40:25.160Z,67.27
2018-10-01T14:42:55.123Z,67.32
2018-10-01T14:45:25.135Z,68.32
2018-10-01T14:47:55.164Z,68.15
2018-10-01T14:50:25.266Z,68.45
2018-10-01T14:52:55.204Z,67.77
2018-10-01T14:55:25.273Z,68.44
2018-10-01T14:57:55.276Z,68.11
2018-10-01T15:00:25.471Z,67.44
2018-10-01T15:02:55.292Z,69.50
2018-10-01T15:05:26.240Z,67.36
2018-10-01T15:07:55.486Z,67.99
2018-10-01T15:10:25.632Z,67.28
2018-10-01T15:12:55.422Z,67.50
2018-10-01T15:15:25.744Z,67.69
2018-10-01T15:17:55.911Z,70.08
2018-10-01T15:20:25.992Z,71.50
2018-10-01T15:22:56.416Z,72.15
2018-10-01T15:25:26.129Z,71.49
2018-10-01T15:27:56.118Z,71.69
2018-10-01T15:30:26.264Z,71.61
2018-10-01T15:32:56.088Z,72.17
2018-10-01T15:35:26.373Z,72.67
2018-10-01T15:37:56.291Z,73.89
2018-10-01T15:40:28.265Z,74.42
2018-10-01T15:42:58.176Z,74.67
2018-10-01T15:45:27.906Z,72.46
2018-10-01T15:47:57.625Z,73.45
2018-10-01T15:50:27.444Z,73.69
2018-10-01T15:52:57.159Z,74.70
2018-10-01T15:55:26.776Z,74.04
2018-10-01T15:57:56.409Z,74.16
2018-10-01T16:00:26.547Z,73.50
2018-10-01T16:02:56.881Z,73.96
2018-10-01T16:05:26.463Z,74.50
2018-10-01T16:07:56.821Z,74.21
2018-10-01T16:10:26.554Z,74.46
2018-10-01T16:12:56.896Z,74.55
2018-10-01T16:15:28.466Z,73.95
2018-10-01T16:17:57.982Z,74.85
2018-10-01T16:20:27.508Z,74.00
2018-10-01T16:22:57.150Z,74.87
2018-10-01T16:25:26.797Z,74.22
2018-10-01T16:27:59.146Z,74.47
2018-10-01T16:30:28.840Z,74.42
2018-10-01T16:32:58.476Z,74.70
2018-10-01T16:35:28.202Z,74.79
2018-10-01T16:37:57.928Z,75.69
2018-10-01T16:40:27.523Z,76.13
2018-10-01T16:42:57.164Z,75.89
2018-10-01T16:45:26.957Z,75.50
2018-10-01T16:47:57.306Z,75.56
2018-10-01T16:50:27.140Z,76.17
2018-10-01T16:52:57.131Z,75.52
2018-10-01T16:55:27.029Z,76.68
2018-10-01T16:57:57.387Z,76.45
2018-10-01T17:00:27.172Z,76.42
2018-10-01T17:02:57.634Z,76.20
2018-10-01T17:05:28.177Z,75.13
2018-10-01T17:07:59.502Z,76.04
2018-10-01T17:10:29.211Z,74.50
2018-10-01T17:12:59.227Z,75.53
2018-10-01T17:15:28.935Z,76.23
2018-10-01T17:17:58.674Z,76.41
2018-10-01T17:20:30.180Z,76.09
2018-10-01T17:23:01.545Z,75.45
2018-10-01T17:25:31.258Z,74.99
2018-10-01T17:28:02.862Z,74.88
2018-10-01T17:30:32.636Z,74.06
2018-10-01T17:33:02.411Z,74.60
2018-10-01T17:35:32.176Z,74.33
2018-10-01T17:38:01.895Z,73.27
2018-10-01T17:40:31.784Z,73.90
2018-10-01T17:43:01.557Z,72.08
2018-10-01T17:45:32.994Z,73.25
2018-10-01T17:48:02.784Z,72.34
2018-10-01T17:50:32.597Z,72.00
2018-10-01T17:53:02.550Z,73.39
2018-10-01T17:55:32.292Z,72.59
2018-10-01T17:58:03.687Z,72.54
2018-10-01T18:00:37.798Z,73.43
2018-10-01T18:03:09.707Z,73.67
2018-10-01T18:05:39.576Z,73.53
2018-10-01T18:08:09.423Z,74.38
2018-10-01T18:10:40.834Z,73.83
2018-10-01T18:13:17.960Z,74.33
2018-10-01T18:15:47.808Z,74.96
2018-10-01T18:18:17.813Z,74.99
2018-10-01T18:20:47.905Z,74.72
2018-10-01T18:23:17.901Z,74.96
2018-10-01T18:25:48.329Z,74.52
2018-10-01T18:28:18.173Z,75.14
2018-10-01T18:30:53.608Z,75.26
2018-10-01T18:33:24.135Z,74.78
2018-10-01T18:35:56.952Z,75.36
2018-10-01T18:38:28.834Z,75.91
2018-10-01T18:41:00.323Z,76.72
2018-10-01T18:43:31.964Z,77.02
2018-10-01T18:46:02.153Z,77.12
2018-10-01T18:48:36.028Z,77.32
2018-10-01T18:51:09.719Z,77.22
2018-10-01T18:56:12.785Z,78.16
2018-10-01T18:58:42.257Z,77.99
2018-10-01T19:01:14.083Z,78.06
2018-10-01T19:03:45.774Z,78.87
2018-10-01T19:06:20.323Z,78.01
2018-10-01T19:08:49.821Z,78.55
2018-10-01T19:11:19.676Z,78.71
2018-10-01T19:13:49.190Z,79.24
2018-10-01T19:16:20.380Z,79.71
2018-10-01T19:18:52.640Z,80.25
2018-10-01T19:21:22.634Z,79.45
2018-10-01T19:23:55.078Z,80.57
2018-10-01T19:26:24.998Z,80.92
2018-10-01T19:28:57.505Z,80.76
2018-10-01T19:44:26.423Z,80.98
2018-10-01T19:46:56.383Z,82.98
2018-10-01T19:49:28.731Z,80.82
2018-10-01T19:52:01.570Z,80.78
2018-10-01T19:54:32.873Z,81.26
2018-10-01T19:57:05.930Z,80.32
2018-10-01T19:59:40.722Z,80.59
2018-10-01T20:02:10.227Z,81.14
2018-10-01T20:04:41.919Z,81.37
2018-10-01T20:07:16.134Z,81.41
2018-10-01T20:09:48.552Z,82.38
2018-10-01T20:12:23.623Z,83.09
2018-10-01T20:14:55.349Z,84.06
2018-10-01T20:17:29.867Z,84.38
2018-10-01T20:19:59.404Z,84.97
2018-10-01T20:22:34.554Z,85.21
2018-10-01T20:25:03.996Z,85.52
2018-10-01T20:27:33.421Z,85.32
2018-10-01T20:30:02.864Z,85.41
2018-10-01T20:32:33.773Z,85.94
2018-10-01T20:35:05.815Z,85.95
2018-10-01T20:37:37.283Z,86.94
2018-10-01T20:40:11.339Z,87.74
2018-10-01T20:42:41.385Z,87.22
2018-10-01T20:45:14.842Z,87.50
2018-10-01T20:47:53.073Z,87.90
2018-10-01T20:50:23.075Z,87.92
2018-10-01T20:52:55.894Z,87.57
2018-10-01T20:55:25.775Z,87.99
2018-10-01T20:57:57.705Z,88.16
2018-10-01T21:00:29.270Z,87.57
2018-10-01T21:03:02.125Z,86.96
2018-10-01T21:05:33.858Z,86.66
2018-10-01T21:08:05.415Z,85.74
2018-10-01T21:10:35.222Z,85.92
2018-10-01T21:13:05.315Z,86.08
2018-10-01T21:15:35.042Z,85.97
2018-10-01T21:18:04.935Z,85.95
2018-10-01T21:20:34.799Z,84.58
2018-10-01T21:23:06.757Z,84.29
2018-10-01T21:25:36.773Z,83.99
2018-10-01T21:28:08.497Z,84.59
2018-10-01T21:30:40.757Z,84.30
2018-10-01T21:33:12.266Z,83.62
2018-10-01T21:35:44.032Z,84.09
2018-10-01T21:38:15.365Z,84.21
2018-10-01T21:40:45.224Z,84.19
2018-10-01T21:43:14.925Z,84.38
2018-10-01T21:45:44.166Z,85.03
2018-10-01T21:48:13.268Z,85.08
2018-10-01T21:50:42.315Z,85.74
2018-10-01T21:53:11.385Z,86.21
2018-10-01T21:58:15.229Z,86.13
2018-10-01T22:00:49.566Z,86.27
2018-10-01T22:03:20.503Z,85.72
2018-10-01T22:05:51.567Z,85.78
2018-10-01T22:08:22.747Z,85.82
2018-10-01T22:10:54.230Z,85.04
2018-10-01T22:13:23.316Z,85.55
2018-10-01T22:15:52.772Z,85.45
2018-10-01T22:18:24.193Z,84.98
2018-10-01T22:21:01.197Z,85.00
2018-10-01T22:24:01.225Z,85.50
2018-10-01T22:26:30.325Z,85.20
2018-10-01T22:29:01.898Z,85.44
2018-10-01T22:31:30.975Z,86.04
2018-10-01T22:34:00.219Z,85.62
2018-10-01T22:36:31.625Z,86.08
2018-10-01T22:39:00.729Z,86.22
2018-10-01T22:41:29.978Z,86.00
2018-10-01T22:44:01.969Z,86.13
2018-10-01T22:46:31.120Z,86.41
2018-10-01T23:02:03.523Z,86.27
2018-10-01T23:04:37.106Z,87.02
2018-10-01T23:07:09.949Z,87.97
2018-10-01T23:09:45.160Z,88.17
2018-10-01T23:12:18.135Z,88.08
2018-10-01T23:14:49.081Z,88.81
2018-10-01T23:17:18.244Z,88.79
2018-10-01T23:19:49.764Z,89.01
2018-10-01T23:22:24.453Z,89.01
2018-10-01T23:24:53.842Z,89.25
2018-10-01T23:27:22.925Z,90.49
2018-10-01T23:29:54.293Z,90.03
2018-10-01T23:32:27.639Z,89.77
2018-10-01T23:34:58.903Z,90.61
2018-10-01T23:37:32.314Z,90.07
2018-10-01T23:40:03.371Z,89.57
2018-10-01T23:42:32.465Z,89.95
2018-10-01T23:45:01.664Z,90.53
2018-10-01T23:47:30.817Z,90.43
2018-10-01T23:50:02.834Z,90.63
2018-10-01T23:52:34.710Z,91.02
2018-10-01T23:55:03.821Z,90.58
2018-10-01T23:57:34.521Z,91.42
